X  Close Metar Aviation Weather Data     EBBR Brussels Airport
Temperature
20°C Temperature
11°C Dewpoint
56% Humidity



Wind
3 KM/H
2 MPH
1 M/S
2 KTS



140°
SE
Current Conditions

Clear Clear
Pressure 1018.92 (hPa) - 30.09 (inHg)
Visibility 6.2 (mile) - 10 (km)
Airport
Airport-code EBBR

Location: Brussels Airport
Distance: 14 (km)

Metar:
EBBR 060620Z 14002KT CAVOK 20/11 Q1019 NOSIG

Time: 2020-08-06 08:20 CEST